createdAt,value
2022-11-02T00:01:42.532Z,3.17
2022-11-02T00:04:44.803Z,3.47
2022-11-02T00:07:47.088Z,3.70
2022-11-02T00:10:49.238Z,3.70
2022-11-02T00:13:55.115Z,3.65
2022-11-02T00:16:57.311Z,3.40
2022-11-02T00:19:59.764Z,3.50
2022-11-02T00:23:02.935Z,3.80
2022-11-02T00:26:05.561Z,3.60
2022-11-02T00:29:08.465Z,4.00
2022-11-02T00:32:10.847Z,3.70
2022-11-02T00:35:13.353Z,3.70
2022-11-02T00:38:15.613Z,3.60
2022-11-02T00:41:19.134Z,3.53
2022-11-02T00:44:21.423Z,3.35
2022-11-02T00:47:23.591Z,3.43
2022-11-02T00:50:25.988Z,3.58
2022-11-02T00:53:28.320Z,3.38
2022-11-02T00:56:30.518Z,3.13
2022-11-02T00:59:32.710Z,3.17
2022-11-02T01:02:35.011Z,3.17
2022-11-02T01:05:38.171Z,3.40
2022-11-02T01:08:40.784Z,3.25
2022-11-02T01:11:43.339Z,3.28
2022-11-02T01:14:49.947Z,3.20
2022-11-02T01:17:52.154Z,3.30
2022-11-02T01:20:58.352Z,3.22
2022-11-02T01:24:00.579Z,3.33
2022-11-02T01:27:02.876Z,2.72
2022-11-02T01:30:05.942Z,3.20
2022-11-02T01:33:08.159Z,3.00
2022-11-02T01:36:14.379Z,3.17
2022-11-02T01:39:16.671Z,3.00
2022-11-02T01:42:21.686Z,3.25
2022-11-02T01:45:23.911Z,3.00
2022-11-02T01:48:34.847Z,2.93
2022-11-02T01:51:42.914Z,3.08
2022-11-02T01:54:55.137Z,3.08
2022-11-02T01:58:10.015Z,3.63
2022-11-02T02:01:12.402Z,2.70
2022-11-02T02:04:15.148Z,3.00
2022-11-02T02:07:17.974Z,2.80
2022-11-02T02:10:20.464Z,3.30
2022-11-02T02:13:24.044Z,3.60
2022-11-02T02:17:00.269Z,3.05
2022-11-02T02:20:11.150Z,2.80
2022-11-02T02:23:41.258Z,3.08
2022-11-02T02:27:14.030Z,3.35
2022-11-02T02:30:17.135Z,2.85
2022-11-02T02:33:51.469Z,3.28
2022-11-02T02:36:59.333Z,3.33
2022-11-02T02:40:09.788Z,2.90
2022-11-02T02:43:44.110Z,3.05
2022-11-02T02:46:56.064Z,2.97
2022-11-02T02:50:05.717Z,3.30
2022-11-02T02:53:08.451Z,3.00
2022-11-02T02:56:15.064Z,2.97
2022-11-02T02:59:28.275Z,3.05
2022-11-02T03:02:36.332Z,3.17
2022-11-02T03:05:38.802Z,3.05
2022-11-02T03:08:51.888Z,3.00
2022-11-02T03:12:15.831Z,3.20
2022-11-02T03:15:24.128Z,3.50
2022-11-02T03:18:55.958Z,3.08
2022-11-02T03:22:28.507Z,2.95
2022-11-02T03:25:41.762Z,2.83
2022-11-02T03:29:01.838Z,3.30
2022-11-02T03:32:10.678Z,2.97
2022-11-02T03:35:32.023Z,3.05
2022-11-02T03:38:52.995Z,3.28
2022-11-02T03:42:00.977Z,3.33
2022-11-02T03:45:15.747Z,3.42
2022-11-02T03:48:21.716Z,3.20
2022-11-02T03:51:25.787Z,3.22
2022-11-02T03:54:48.628Z,3.25
2022-11-02T03:57:52.216Z,3.43
2022-11-02T04:01:04.089Z,3.03
2022-11-02T04:04:07.007Z,3.50
2022-11-02T04:07:09.397Z,3.08
2022-11-02T04:10:11.686Z,2.80
2022-11-02T04:13:40.214Z,2.90
2022-11-02T04:16:43.217Z,3.10
2022-11-02T04:19:51.455Z,3.42
2022-11-02T04:23:13.883Z,3.03
2022-11-02T04:26:16.962Z,3.50
2022-11-02T04:29:20.611Z,3.30
2022-11-02T04:32:42.187Z,3.15
2022-11-02T04:35:48.674Z,3.10
2022-11-02T04:38:52.101Z,3.00
2022-11-02T04:41:58.565Z,3.25
2022-11-02T04:45:06.176Z,3.30
2022-11-02T04:48:09.927Z,3.30
2022-11-02T04:51:13.527Z,2.88
2022-11-02T04:54:15.764Z,2.80
2022-11-02T04:57:19.063Z,2.92
2022-11-02T05:00:21.900Z,3.30
2022-11-02T05:03:24.871Z,2.97
2022-11-02T05:06:27.851Z,3.20
2022-11-02T05:09:31.070Z,3.08
2022-11-02T05:12:33.355Z,3.03
2022-11-02T05:15:39.336Z,3.40
2022-11-02T05:18:43.676Z,2.97
2022-11-02T05:21:46.295Z,2.88
2022-11-02T05:24:49.150Z,2.95
2022-11-02T05:27:51.417Z,3.15
2022-11-02T05:30:54.479Z,2.97
2022-11-02T05:33:57.092Z,3.33
2022-11-02T05:36:59.298Z,3.22
2022-11-02T05:40:01.575Z,2.85
2022-11-02T05:43:04.817Z,3.05
2022-11-02T05:46:09.936Z,2.90
2022-11-02T05:49:12.317Z,2.95
2022-11-02T05:52:14.616Z,3.05
2022-11-02T05:55:16.879Z,2.72
2022-11-02T05:58:19.053Z,3.20
2022-11-02T06:01:23.968Z,2.97
2022-11-02T06:04:26.292Z,3.20
2022-11-02T06:07:28.440Z,3.20
2022-11-02T06:10:31.234Z,3.13
2022-11-02T06:13:33.489Z,3.00
2022-11-02T06:16:35.672Z,3.20
2022-11-02T06:19:37.853Z,3.40
2022-11-02T06:22:43.500Z,3.20
2022-11-02T06:25:56.559Z,3.25
2022-11-02T06:28:59.588Z,3.05
2022-11-02T06:32:01.939Z,3.23
2022-11-02T06:35:04.332Z,2.80
2022-11-02T06:38:06.526Z,3.20
2022-11-02T06:41:08.884Z,2.97
2022-11-02T06:44:13.180Z,3.53
2022-11-02T06:47:15.388Z,3.20
2022-11-02T06:50:25.005Z,3.15
2022-11-02T06:53:27.409Z,3.17
2022-11-02T06:56:29.566Z,3.30
2022-11-02T06:59:31.723Z,4.28
2022-11-02T07:02:34.315Z,4.13
2022-11-02T07:05:37.362Z,4.80
2022-11-02T07:08:44.079Z,5.18
2022-11-02T07:11:46.246Z,5.63
2022-11-02T07:14:48.514Z,5.45
2022-11-02T07:17:57.876Z,5.63
2022-11-02T07:21:00.111Z,4.93
2022-11-02T07:24:02.575Z,5.45
2022-11-02T07:27:04.780Z,5.78
2022-11-02T07:30:08.616Z,5.70
2022-11-02T07:33:12.637Z,5.47
2022-11-02T07:36:14.849Z,6.28
2022-11-02T07:39:18.893Z,5.97
2022-11-02T07:42:23.649Z,6.03
2022-11-02T07:45:28.329Z,6.13
2022-11-02T07:48:30.864Z,6.17
2022-11-02T07:51:33.635Z,6.63
2022-11-02T07:54:38.559Z,6.45
2022-11-02T07:57:57.090Z,6.38
2022-11-02T08:01:02.548Z,6.28
2022-11-02T08:04:05.020Z,6.30
2022-11-02T08:07:07.258Z,6.10
2022-11-02T08:10:09.759Z,6.47
2022-11-02T08:13:17.190Z,6.40
2022-11-02T08:16:19.482Z,6.25
2022-11-02T08:19:21.769Z,6.63
2022-11-02T08:22:24.124Z,6.55
2022-11-02T08:25:26.461Z,6.57
2022-11-02T08:28:32.066Z,6.32
2022-11-02T08:31:34.280Z,6.90
2022-11-02T08:34:52.241Z,6.50
2022-11-02T08:38:05.644Z,6.68
2022-11-02T08:41:08.588Z,6.85
2022-11-02T08:44:10.845Z,6.85
2022-11-02T08:47:13.470Z,7.10
2022-11-02T08:50:15.700Z,6.77
2022-11-02T08:53:18.316Z,6.80
2022-11-02T08:56:20.614Z,6.57
2022-11-02T08:59:22.976Z,6.95
2022-11-02T09:02:25.356Z,6.68
2022-11-02T09:05:29.325Z,7.00
2022-11-02T09:08:31.773Z,7.40
2022-11-02T09:11:33.944Z,7.05
2022-11-02T09:14:36.428Z,6.57
2022-11-02T09:17:38.690Z,6.70
2022-11-02T09:20:40.943Z,7.47
2022-11-02T09:23:46.328Z,6.25
2022-11-02T09:26:49.699Z,6.72
2022-11-02T09:29:52.034Z,6.60
2022-11-02T09:33:02.425Z,6.75
2022-11-02T09:36:05.962Z,6.77
2022-11-02T09:39:08.432Z,6.63
2022-11-02T09:42:29.776Z,6.68
2022-11-02T09:45:36.670Z,6.63
2022-11-02T09:49:16.099Z,7.60
2022-11-02T09:52:30.200Z,7.00
2022-11-02T09:55:37.173Z,7.63
2022-11-02T09:58:41.146Z,7.57
2022-11-02T10:02:39.317Z,7.65
2022-11-02T10:05:56.051Z,7.50
2022-11-02T10:09:04.226Z,7.77
2022-11-02T10:12:16.951Z,7.93
2022-11-02T10:15:25.038Z,7.82
2022-11-02T10:18:30.074Z,7.40
2022-11-02T10:21:34.113Z,7.40
2022-11-02T10:24:42.721Z,7.43
2022-11-02T10:27:50.071Z,6.88
2022-11-02T10:30:54.691Z,7.65
2022-11-02T10:33:59.681Z,7.22
2022-11-02T10:37:23.784Z,7.32
2022-11-02T10:40:44.768Z,7.47
2022-11-02T10:44:17.728Z,7.38
2022-11-02T10:47:27.698Z,6.75
2022-11-02T10:51:00.626Z,7.25
2022-11-02T10:54:02.906Z,7.20
2022-11-02T10:57:18.785Z,7.43
2022-11-02T11:00:33.520Z,6.75
2022-11-02T11:03:56.136Z,7.32
2022-11-02T11:07:19.645Z,7.03
2022-11-02T11:10:24.856Z,6.90
2022-11-02T11:16:55.336Z,6.93
2022-11-02T11:20:02.722Z,7.32
2022-11-02T11:23:15.750Z,7.43
2022-11-02T11:26:31.830Z,6.72
2022-11-02T11:29:37.793Z,7.03
2022-11-02T11:32:47.427Z,6.45
2022-11-02T11:35:51.153Z,6.90
2022-11-02T11:38:56.053Z,6.68
2022-11-02T11:41:59.654Z,6.82
2022-11-02T11:45:06.496Z,7.00
2022-11-02T11:48:47.369Z,7.32
2022-11-02T11:51:52.805Z,7.28
2022-11-02T11:55:02.530Z,6.63
2022-11-02T11:58:15.963Z,7.00
2022-11-02T12:01:20.002Z,7.03
2022-11-02T12:04:33.336Z,6.72
2022-11-02T12:08:09.584Z,7.07
2022-11-02T12:11:29.675Z,7.05
2022-11-02T12:14:34.709Z,7.07
2022-11-02T12:17:49.068Z,6.93
2022-11-02T12:21:33.496Z,7.03
2022-11-02T12:25:04.219Z,7.30
2022-11-02T12:28:31.951Z,6.72
2022-11-02T12:31:40.308Z,6.60
2022-11-02T12:35:27.861Z,6.90
2022-11-02T12:38:36.858Z,6.90
2022-11-02T12:41:48.771Z,7.40
2022-11-02T12:45:12.383Z,6.60
2022-11-02T12:48:25.265Z,7.05
2022-11-02T12:51:39.113Z,7.00
2022-11-02T12:54:47.835Z,6.47
2022-11-02T12:57:54.655Z,6.32
2022-11-02T13:01:13.456Z,6.50
2022-11-02T13:04:29.302Z,6.50
2022-11-02T13:07:48.917Z,6.60
2022-11-02T13:11:11.571Z,6.70
2022-11-02T13:14:21.386Z,7.40
2022-11-02T13:17:36.111Z,7.13
2022-11-02T13:20:43.444Z,6.65
2022-11-02T13:23:52.437Z,7.30
2022-11-02T13:27:39.056Z,6.68
2022-11-02T13:30:44.752Z,6.53
2022-11-02T13:33:50.597Z,6.70
2022-11-02T13:36:53.008Z,6.85
2022-11-02T13:40:03.458Z,6.67
2022-11-02T13:44:03.312Z,6.93
2022-11-02T13:47:49.531Z,6.90
2022-11-02T13:50:57.041Z,6.28
2022-11-02T13:54:14.972Z,6.90
2022-11-02T13:57:38.718Z,6.43
2022-11-02T14:00:45.248Z,6.28
2022-11-02T14:04:07.177Z,6.75
2022-11-02T14:07:34.644Z,6.43
2022-11-02T14:10:39.506Z,6.30
2022-11-02T14:13:53.633Z,5.83
2022-11-02T14:16:59.774Z,6.05
2022-11-02T14:20:04.915Z,6.15
2022-11-02T14:23:14.269Z,6.22
2022-11-02T14:26:33.367Z,5.50
2022-11-02T14:29:55.964Z,5.80
2022-11-02T14:33:08.331Z,5.50
2022-11-02T14:36:20.976Z,5.32
2022-11-02T14:39:44.266Z,5.60
2022-11-02T14:43:16.902Z,5.28
2022-11-02T14:46:34.389Z,5.10
2022-11-02T14:50:08.405Z,5.38
2022-11-02T14:53:26.305Z,5.07
2022-11-02T14:56:49.035Z,4.60
2022-11-02T14:59:54.845Z,5.00
2022-11-02T15:02:58.460Z,5.20
2022-11-02T15:06:32.128Z,4.90
2022-11-02T15:10:00.989Z,4.53
2022-11-02T15:13:24.232Z,5.00
2022-11-02T15:16:39.086Z,5.15
2022-11-02T15:19:52.024Z,4.57
2022-11-02T15:23:01.088Z,5.18
2022-11-02T15:26:06.104Z,4.80
2022-11-02T15:29:19.943Z,4.97
2022-11-02T15:32:25.991Z,5.10
2022-11-02T15:35:34.782Z,5.23
2022-11-02T15:38:40.267Z,4.97
2022-11-02T15:42:13.724Z,5.32
2022-11-02T15:45:46.768Z,5.10
2022-11-02T15:49:26.902Z,5.07
2022-11-02T15:53:21.077Z,5.27
2022-11-02T15:56:23.343Z,5.70
2022-11-02T15:59:53.016Z,5.10
2022-11-02T16:03:03.113Z,5.00
2022-11-02T16:06:06.229Z,5.20
2022-11-02T16:09:34.242Z,5.03
2022-11-02T16:12:36.429Z,4.97
2022-11-02T16:15:42.381Z,5.30
2022-11-02T16:18:51.080Z,4.53
2022-11-02T16:21:56.041Z,5.05
2022-11-02T16:25:10.585Z,5.43
2022-11-02T16:28:12.762Z,4.88
2022-11-02T16:31:30.736Z,5.20
2022-11-02T16:34:33.663Z,4.60
2022-11-02T16:37:36.135Z,4.55
2022-11-02T16:40:38.594Z,5.03
2022-11-02T16:43:45.738Z,5.20
2022-11-02T16:46:58.891Z,4.75
2022-11-02T16:50:01.287Z,5.15
2022-11-02T16:53:03.491Z,4.82
2022-11-02T16:56:28.531Z,4.77
2022-11-02T16:59:36.179Z,5.00
2022-11-02T17:02:45.874Z,4.75
2022-11-02T17:05:49.654Z,4.35
2022-11-02T17:08:54.884Z,4.82
2022-11-02T17:12:12.231Z,4.40
2022-11-02T17:15:20.646Z,4.38
2022-11-02T17:18:22.777Z,4.40
2022-11-02T17:21:27.824Z,4.60
2022-11-02T17:24:32.368Z,4.60
2022-11-02T17:27:39.247Z,4.20
2022-11-02T17:30:46.718Z,3.90
2022-11-02T17:33:49.569Z,4.30
2022-11-02T17:36:52.186Z,4.53
2022-11-02T17:39:55.918Z,4.68
2022-11-02T17:43:01.002Z,4.40
2022-11-02T17:46:03.225Z,4.50
2022-11-02T17:49:05.441Z,4.63
2022-11-02T17:52:10.283Z,4.68
2022-11-02T17:55:18.018Z,4.00
2022-11-02T17:58:20.156Z,4.27
2022-11-02T18:01:22.475Z,4.40
2022-11-02T18:04:24.790Z,4.38
2022-11-02T18:07:27.030Z,4.60
2022-11-02T18:10:32.743Z,4.18
2022-11-02T18:13:34.894Z,4.53
2022-11-02T18:16:37.066Z,3.85
2022-11-02T18:19:39.253Z,4.70
2022-11-02T18:22:41.708Z,4.35
2022-11-02T18:25:43.958Z,4.28
2022-11-02T18:28:46.150Z,4.30
2022-11-02T18:31:48.334Z,4.38
2022-11-02T18:34:50.541Z,4.80
2022-11-02T18:37:52.789Z,4.07
2022-11-02T18:40:54.962Z,4.45
2022-11-02T18:44:08.915Z,4.90
2022-11-02T18:47:12.751Z,4.50
2022-11-02T18:50:14.986Z,4.60
2022-11-02T18:53:17.180Z,4.20
2022-11-02T18:56:21.105Z,4.72
2022-11-02T18:59:23.291Z,4.50
2022-11-02T19:02:26.109Z,4.50
2022-11-02T19:05:46.913Z,4.50
2022-11-02T19:09:08.329Z,4.30
2022-11-02T19:12:16.341Z,4.43
2022-11-02T19:15:18.507Z,4.43
2022-11-02T19:18:20.674Z,4.20
2022-11-02T19:21:22.845Z,4.10
2022-11-02T19:24:25.041Z,4.75
2022-11-02T19:27:27.277Z,4.15
2022-11-02T19:30:29.468Z,4.40
2022-11-02T19:33:34.611Z,4.40
2022-11-02T19:36:37.229Z,4.60
2022-11-02T19:39:39.828Z,4.15
2022-11-02T19:42:41.993Z,4.20
2022-11-02T19:45:44.168Z,4.07
2022-11-02T19:48:46.588Z,4.35
2022-11-02T19:51:48.824Z,4.80
2022-11-02T19:54:51.172Z,3.97
2022-11-02T19:57:53.490Z,4.13
2022-11-02T20:00:55.704Z,4.27
2022-11-02T20:03:58.447Z,4.28
2022-11-02T20:07:00.641Z,4.13
2022-11-02T20:10:02.819Z,4.40
2022-11-02T20:13:04.990Z,4.05
2022-11-02T20:16:08.286Z,3.83
2022-11-02T20:19:10.914Z,4.05
2022-11-02T20:22:13.114Z,3.90
2022-11-02T20:25:15.335Z,3.92
2022-11-02T20:28:17.486Z,4.00
2022-11-02T20:31:25.890Z,3.90
2022-11-02T20:34:28.136Z,4.10
2022-11-02T20:37:34.908Z,4.10
2022-11-02T20:40:41.110Z,3.80
2022-11-02T20:43:45.714Z,3.85
2022-11-02T20:46:52.793Z,3.80
2022-11-02T20:49:55.589Z,4.00
2022-11-02T20:52:58.907Z,3.90
2022-11-02T20:56:01.996Z,4.25
2022-11-02T20:59:04.268Z,3.65
2022-11-02T21:02:06.659Z,3.67
2022-11-02T21:05:09.268Z,3.80
2022-11-02T21:08:12.428Z,3.72
2022-11-02T21:11:32.871Z,3.72
2022-11-02T21:14:35.047Z,4.10
2022-11-02T21:17:37.215Z,3.80
2022-11-02T21:20:39.534Z,3.90
2022-11-02T21:23:42.495Z,4.30
2022-11-02T21:26:44.657Z,3.50
2022-11-02T21:29:46.839Z,3.53
2022-11-02T21:32:53.350Z,3.80
2022-11-02T21:35:55.609Z,3.55
2022-11-02T21:38:58.874Z,3.80
2022-11-02T21:42:04.736Z,3.35
2022-11-02T21:45:07.910Z,3.85
2022-11-02T21:48:10.204Z,3.70
2022-11-02T21:51:15.060Z,3.55
2022-11-02T21:54:17.236Z,3.75
2022-11-02T21:57:19.408Z,3.75
2022-11-02T22:00:21.647Z,3.83
2022-11-02T22:03:23.816Z,3.47
2022-11-02T22:06:30.959Z,3.63
2022-11-02T22:09:33.774Z,4.10
2022-11-02T22:12:54.665Z,3.80
2022-11-02T22:15:56.812Z,3.97
2022-11-02T22:19:04.369Z,4.00
2022-11-02T22:22:06.610Z,4.18
2022-11-02T22:25:08.988Z,3.75
2022-11-02T22:28:11.177Z,3.88
2022-11-02T22:31:17.644Z,3.80
2022-11-02T22:34:19.825Z,3.60
2022-11-02T22:37:40.747Z,3.90
2022-11-02T22:40:43.026Z,3.80
2022-11-02T22:43:45.805Z,3.72
2022-11-02T22:46:50.160Z,3.60
2022-11-02T22:49:52.301Z,3.60
2022-11-02T22:52:55.044Z,3.60
2022-11-02T22:56:01.184Z,3.60
2022-11-02T22:59:04.386Z,3.80
2022-11-02T23:02:06.633Z,4.00
2022-11-02T23:05:09.319Z,3.87
2022-11-02T23:08:11.973Z,3.80
2022-11-02T23:11:22.354Z,3.90
2022-11-02T23:14:24.603Z,3.35
2022-11-02T23:17:26.744Z,3.70
2022-11-02T23:20:28.918Z,3.60
2022-11-02T23:23:49.846Z,3.28
2022-11-02T23:26:52.171Z,3.55
2022-11-02T23:30:13.114Z,3.75
2022-11-02T23:33:15.817Z,3.40
2022-11-02T23:36:17.962Z,3.47
2022-11-02T23:39:38.939Z,3.40
2022-11-02T23:42:41.348Z,3.42
2022-11-02T23:45:43.492Z,3.20
2022-11-02T23:48:48.326Z,3.35
2022-11-02T23:52:11.759Z,3.57
2022-11-02T23:55:35.307Z,3.60
2022-11-02T23:58:37.874Z,3.70
